sensor_id;sensor_type;location;lat;lon;timestamp;pressure;altitude;pressure_sealevel;temperature;humidity
16525;BME280;8375;33.594;-117.718;2023-01-31T00:00:15;100100.94;;;11.50;100.00
16525;BME280;8375;33.594;-117.718;2023-01-31T00:02:46;100108.38;;;11.43;100.00
16525;BME280;8375;33.594;-117.718;2023-01-31T00:05:15;100107.75;;;11.30;100.00
16525;BME280;8375;33.594;-117.718;2023-01-31T00:07:45;100107.53;;;11.22;100.00
16525;BME280;8375;33.594;-117.718;2023-01-31T00:10:15;100103.94;;;11.13;100.00
16525;BME280;8375;33.594;-117.718;2023-01-31T00:12:47;100095.69;;;11.08;100.00
16525;BME280;8375;33.594;-117.718;2023-01-31T00:15:16;100101.81;;;11.07;100.00
16525;BME280;8375;33.594;-117.718;2023-01-31T00:17:46;100104.53;;;11.05;100.00
16525;BME280;8375;33.594;-117.718;2023-01-31T00:20:17;100100.88;;;11.08;100.00
16525;BME280;8375;33.594;-117.718;2023-01-31T00:22:57;100099.09;;;11.08;100.00
16525;BME280;8375;33.594;-117.718;2023-01-31T00:25:27;100096.03;;;11.03;100.00
16525;BME280;8375;33.594;-117.718;2023-01-31T00:27:57;100112.16;;;10.85;100.00
16525;BME280;8375;33.594;-117.718;2023-01-31T00:30:27;100122.66;;;10.38;100.00
16525;BME280;8375;33.594;-117.718;2023-01-31T00:33:00;100128.09;;;10.24;100.00
16525;BME280;8375;33.594;-117.718;2023-01-31T00:35:29;100126.44;;;10.11;100.00
16525;BME280;8375;33.594;-117.718;2023-01-31T00:37:58;100135.16;;;10.10;100.00
16525;BME280;8375;33.594;-117.718;2023-01-31T00:40:29;100137.41;;;10.15;100.00
16525;BME280;8375;33.594;-117.718;2023-01-31T00:42:58;100145.22;;;10.15;100.00
16525;BME280;8375;33.594;-117.718;2023-01-31T00:45:27;100142.47;;;10.17;100.00
16525;BME280;8375;33.594;-117.718;2023-01-31T00:47:58;100145.66;;;10.09;100.00
16525;BME280;8375;33.594;-117.718;2023-01-31T00:50:27;100139.53;;;10.10;100.00
16525;BME280;8375;33.594;-117.718;2023-01-31T00:52:56;100135.41;;;10.07;100.00
16525;BME280;8375;33.594;-117.718;2023-01-31T00:55:26;100139.66;;;10.08;100.00
16525;BME280;8375;33.594;-117.718;2023-01-31T00:57:57;100136.94;;;10.10;100.00
16525;BME280;8375;33.594;-117.718;2023-01-31T01:00:30;100142.72;;;10.13;100.00
16525;BME280;8375;33.594;-117.718;2023-01-31T01:03:05;100135.63;;;10.16;100.00
16525;BME280;8375;33.594;-117.718;2023-01-31T01:05:33;100138.22;;;10.16;100.00
16525;BME280;8375;33.594;-117.718;2023-01-31T01:08:02;100144.38;;;10.15;100.00
16525;BME280;8375;33.594;-117.718;2023-01-31T01:10:31;100134.00;;;10.15;100.00
16525;BME280;8375;33.594;-117.718;2023-01-31T01:13:00;100138.22;;;10.16;100.00
16525;BME280;8375;33.594;-117.718;2023-01-31T01:15:29;100134.69;;;10.17;100.00
16525;BME280;8375;33.594;-117.718;2023-01-31T01:17:57;100127.28;;;10.12;100.00
16525;BME280;8375;33.594;-117.718;2023-01-31T01:20:28;100119.38;;;10.13;100.00
16525;BME280;8375;33.594;-117.718;2023-01-31T01:22:58;100124.69;;;10.12;100.00
16525;BME280;8375;33.594;-117.718;2023-01-31T01:25:27;100111.81;;;10.10;100.00
16525;BME280;8375;33.594;-117.718;2023-01-31T01:27:58;100112.19;;;10.06;100.00
16525;BME280;8375;33.594;-117.718;2023-01-31T01:30:27;100107.22;;;10.03;100.00
16525;BME280;8375;33.594;-117.718;2023-01-31T01:32:57;100095.06;;;10.03;100.00
16525;BME280;8375;33.594;-117.718;2023-01-31T01:35:27;100094.97;;;10.05;100.00
16525;BME280;8375;33.594;-117.718;2023-01-31T01:37:56;100100.97;;;10.05;100.00
16525;BME280;8375;33.594;-117.718;2023-01-31T01:40:33;100099.78;;;10.09;100.00
16525;BME280;8375;33.594;-117.718;2023-01-31T01:43:01;100088.72;;;10.07;100.00
16525;BME280;8375;33.594;-117.718;2023-01-31T01:45:30;100096.72;;;10.04;100.00
16525;BME280;8375;33.594;-117.718;2023-01-31T01:48:03;100097.09;;;10.00;100.00
16525;BME280;8375;33.594;-117.718;2023-01-31T01:50:38;100101.44;;;9.99;100.00
16525;BME280;8375;33.594;-117.718;2023-01-31T01:53:10;100104.16;;;9.97;100.00
16525;BME280;8375;33.594;-117.718;2023-01-31T01:55:41;100103.31;;;9.97;100.00
16525;BME280;8375;33.594;-117.718;2023-01-31T01:58:19;100101.19;;;9.91;100.00
16525;BME280;8375;33.594;-117.718;2023-01-31T02:00:51;100109.22;;;9.88;100.00
16525;BME280;8375;33.594;-117.718;2023-01-31T02:03:21;100103.91;;;9.78;100.00
16525;BME280;8375;33.594;-117.718;2023-01-31T02:05:53;100111.28;;;9.71;100.00
16525;BME280;8375;33.594;-117.718;2023-01-31T02:08:26;100111.44;;;9.69;100.00
16525;BME280;8375;33.594;-117.718;2023-01-31T02:11:02;100106.94;;;9.72;100.00
16525;BME280;8375;33.594;-117.718;2023-01-31T02:13:31;100114.38;;;9.76;100.00
16525;BME280;8375;33.594;-117.718;2023-01-31T02:16:01;100114.28;;;9.78;100.00
16525;BME280;8375;33.594;-117.718;2023-01-31T02:18:29;100119.56;;;9.76;100.00
16525;BME280;8375;33.594;-117.718;2023-01-31T02:31:03;100112.94;;;9.72;100.00
16525;BME280;8375;33.594;-117.718;2023-01-31T02:33:41;100115.78;;;9.69;100.00
16525;BME280;8375;33.594;-117.718;2023-01-31T02:36:19;100116.63;;;9.69;100.00
16525;BME280;8375;33.594;-117.718;2023-01-31T02:38:59;100112.47;;;9.67;100.00
16525;BME280;8375;33.594;-117.718;2023-01-31T02:41:34;100116.00;;;9.66;100.00
16525;BME280;8375;33.594;-117.718;2023-01-31T02:44:10;100113.63;;;9.63;100.00
16525;BME280;8375;33.594;-117.718;2023-01-31T02:47:01;100114.56;;;9.62;100.00
16525;BME280;8375;33.594;-117.718;2023-01-31T02:49:40;100112.91;;;9.61;100.00
16525;BME280;8375;33.594;-117.718;2023-01-31T02:52:17;100122.47;;;9.60;100.00
16525;BME280;8375;33.594;-117.718;2023-01-31T02:54:55;100131.66;;;9.53;100.00
16525;BME280;8375;33.594;-117.718;2023-01-31T02:57:43;100131.41;;;9.56;100.00
16525;BME280;8375;33.594;-117.718;2023-01-31T03:00:13;100130.56;;;9.56;100.00
16525;BME280;8375;33.594;-117.718;2023-01-31T03:02:42;100128.81;;;9.56;100.00
16525;BME280;8375;33.594;-117.718;2023-01-31T03:05:14;100143.53;;;9.56;100.00
16525;BME280;8375;33.594;-117.718;2023-01-31T03:07:47;100141.88;;;9.54;100.00
16525;BME280;8375;33.594;-117.718;2023-01-31T03:10:41;100149.78;;;9.53;100.00
16525;BME280;8375;33.594;-117.718;2023-01-31T03:13:33;100148.22;;;9.50;100.00
16525;BME280;8375;33.594;-117.718;2023-01-31T03:16:13;100144.94;;;9.48;100.00
16525;BME280;8375;33.594;-117.718;2023-01-31T03:19:05;100140.44;;;9.50;100.00
16525;BME280;8375;33.594;-117.718;2023-01-31T03:21:46;100149.06;;;9.51;100.00
16525;BME280;8375;33.594;-117.718;2023-01-31T03:24:19;100145.84;;;9.47;100.00
16525;BME280;8375;33.594;-117.718;2023-01-31T03:26:52;100149.28;;;9.48;100.00
16525;BME280;8375;33.594;-117.718;2023-01-31T03:29:25;100150.22;;;9.47;100.00
16525;BME280;8375;33.594;-117.718;2023-01-31T03:32:07;100147.66;;;9.47;100.00
16525;BME280;8375;33.594;-117.718;2023-01-31T03:34:47;100154.47;;;9.48;100.00
16525;BME280;8375;33.594;-117.718;2023-01-31T03:37:24;100154.25;;;9.51;100.00
16525;BME280;8375;33.594;-117.718;2023-01-31T03:40:04;100150.34;;;9.45;100.00
16525;BME280;8375;33.594;-117.718;2023-01-31T03:42:38;100155.63;;;9.44;100.00
16525;BME280;8375;33.594;-117.718;2023-01-31T03:45:25;100159.88;;;9.45;100.00
16525;BME280;8375;33.594;-117.718;2023-01-31T03:48:01;100166.72;;;9.46;100.00
16525;BME280;8375;33.594;-117.718;2023-01-31T03:50:37;100169.75;;;9.39;100.00
16525;BME280;8375;33.594;-117.718;2023-01-31T03:53:12;100172.34;;;9.39;100.00
16525;BME280;8375;33.594;-117.718;2023-01-31T03:55:47;100166.31;;;9.39;100.00
16525;BME280;8375;33.594;-117.718;2023-01-31T03:58:19;100172.56;;;9.36;100.00
16525;BME280;8375;33.594;-117.718;2023-01-31T04:00:51;100176.81;;;9.37;100.00
16525;BME280;8375;33.594;-117.718;2023-01-31T04:03:27;100183.47;;;9.29;100.00
16525;BME280;8375;33.594;-117.718;2023-01-31T04:05:58;100197.25;;;9.29;100.00
16525;BME280;8375;33.594;-117.718;2023-01-31T04:08:29;100194.88;;;9.26;100.00
16525;BME280;8375;33.594;-117.718;2023-01-31T04:10:59;100194.03;;;9.25;100.00
16525;BME280;8375;33.594;-117.718;2023-01-31T04:13:31;100190.31;;;9.30;100.00
16525;BME280;8375;33.594;-117.718;2023-01-31T04:16:02;100186.06;;;9.29;100.00
16525;BME280;8375;33.594;-117.718;2023-01-31T04:18:40;100191.94;;;9.31;100.00
16525;BME280;8375;33.594;-117.718;2023-01-31T04:21:10;100193.50;;;9.33;100.00
16525;BME280;8375;33.594;-117.718;2023-01-31T04:23:43;100185.84;;;9.32;100.00
16525;BME280;8375;33.594;-117.718;2023-01-31T04:26:12;100185.53;;;9.36;100.00
16525;BME280;8375;33.594;-117.718;2023-01-31T04:28:49;100192.44;;;9.36;100.00
16525;BME280;8375;33.594;-117.718;2023-01-31T04:31:19;100196.09;;;9.33;100.00
16525;BME280;8375;33.594;-117.718;2023-01-31T04:33:49;100193.38;;;9.35;100.00
16525;BME280;8375;33.594;-117.718;2023-01-31T04:36:18;100194.66;;;9.29;100.00
16525;BME280;8375;33.594;-117.718;2023-01-31T04:38:48;100197.25;;;9.29;100.00
16525;BME280;8375;33.594;-117.718;2023-01-31T04:41:17;100191.16;;;9.30;100.00
16525;BME280;8375;33.594;-117.718;2023-01-31T04:43:45;100192.19;;;9.28;100.00
16525;BME280;8375;33.594;-117.718;2023-01-31T04:46:14;100187.94;;;9.27;100.00
16525;BME280;8375;33.594;-117.718;2023-01-31T04:48:43;100186.19;;;9.27;100.00
16525;BME280;8375;33.594;-117.718;2023-01-31T04:51:12;100180.38;;;9.23;100.00
16525;BME280;8375;33.594;-117.718;2023-01-31T04:53:42;100186.72;;;9.19;100.00
16525;BME280;8375;33.594;-117.718;2023-01-31T04:56:14;100181.53;;;9.19;100.00
16525;BME280;8375;33.594;-117.718;2023-01-31T04:58:43;100175.31;;;9.22;100.00
16525;BME280;8375;33.594;-117.718;2023-01-31T05:01:12;100177.06;;;9.21;100.00
16525;BME280;8375;33.594;-117.718;2023-01-31T05:03:40;100181.75;;;9.16;100.00
16525;BME280;8375;33.594;-117.718;2023-01-31T05:06:11;100181.25;;;9.11;100.00
16525;BME280;8375;33.594;-117.718;2023-01-31T05:08:40;100175.03;;;9.14;100.00
16525;BME280;8375;33.594;-117.718;2023-01-31T05:11:12;100183.75;;;9.13;100.00
16525;BME280;8375;33.594;-117.718;2023-01-31T05:13:41;100186.56;;;9.09;100.00
16525;BME280;8375;33.594;-117.718;2023-01-31T05:16:11;100189.97;;;9.10;100.00
16525;BME280;8375;33.594;-117.718;2023-01-31T05:18:45;100196.28;;;9.06;100.00
16525;BME280;8375;33.594;-117.718;2023-01-31T05:21:16;100204.28;;;9.03;100.00
16525;BME280;8375;33.594;-117.718;2023-01-31T05:23:45;100210.38;;;9.02;100.00
16525;BME280;8375;33.594;-117.718;2023-01-31T05:26:17;100207.19;;;8.98;100.00
16525;BME280;8375;33.594;-117.718;2023-01-31T05:28:46;100202.84;;;8.99;100.00
16525;BME280;8375;33.594;-117.718;2023-01-31T05:31:14;100205.84;;;8.92;100.00
16525;BME280;8375;33.594;-117.718;2023-01-31T05:33:53;100209.59;;;8.88;100.00
16525;BME280;8375;33.594;-117.718;2023-01-31T05:36:24;100212.41;;;8.85;100.00
16525;BME280;8375;33.594;-117.718;2023-01-31T05:38:53;100210.03;;;8.82;100.00
16525;BME280;8375;33.594;-117.718;2023-01-31T05:41:23;100219.34;;;8.72;100.00
16525;BME280;8375;33.594;-117.718;2023-01-31T05:43:52;100221.56;;;8.65;100.00
16525;BME280;8375;33.594;-117.718;2023-01-31T05:46:20;100220.81;;;8.63;100.00
16525;BME280;8375;33.594;-117.718;2023-01-31T05:48:49;100209.84;;;8.59;100.00
16525;BME280;8375;33.594;-117.718;2023-01-31T05:51:18;100210.91;;;8.57;100.00
16525;BME280;8375;33.594;-117.718;2023-01-31T05:53:47;100211.78;;;8.43;100.00
16525;BME280;8375;33.594;-117.718;2023-01-31T05:56:15;100212.19;;;8.36;100.00
16525;BME280;8375;33.594;-117.718;2023-01-31T05:58:46;100208.16;;;8.32;100.00
16525;BME280;8375;33.594;-117.718;2023-01-31T06:01:16;100211.59;;;8.33;100.00
16525;BME280;8375;33.594;-117.718;2023-01-31T06:03:45;100213.53;;;8.29;100.00
16525;BME280;8375;33.594;-117.718;2023-01-31T06:06:15;100212.41;;;8.20;100.00
16525;BME280;8375;33.594;-117.718;2023-01-31T06:08:44;100208.06;;;8.21;100.00
16525;BME280;8375;33.594;-117.718;2023-01-31T06:11:13;100207.31;;;8.19;100.00
16525;BME280;8375;33.594;-117.718;2023-01-31T06:13:42;100208.38;;;8.16;100.00
16525;BME280;8375;33.594;-117.718;2023-01-31T06:16:12;100209.50;;;8.12;100.00
16525;BME280;8375;33.594;-117.718;2023-01-31T06:18:41;100208.16;;;8.06;100.00
16525;BME280;8375;33.594;-117.718;2023-01-31T06:21:09;100202.56;;;8.00;100.00
16525;BME280;8375;33.594;-117.718;2023-01-31T06:23:38;100198.53;;;7.96;100.00
16525;BME280;8375;33.594;-117.718;2023-01-31T06:26:11;100206.84;;;7.86;100.00
16525;BME280;8375;33.594;-117.718;2023-01-31T06:28:40;100209.97;;;7.78;100.00
16525;BME280;8375;33.594;-117.718;2023-01-31T06:31:11;100217.06;;;7.75;100.00
16525;BME280;8375;33.594;-117.718;2023-01-31T06:33:39;100217.19;;;7.73;100.00
16525;BME280;8375;33.594;-117.718;2023-01-31T06:36:08;100212.00;;;7.73;100.00
16525;BME280;8375;33.594;-117.718;2023-01-31T06:38:37;100218.50;;;7.66;100.00
16525;BME280;8375;33.594;-117.718;2023-01-31T06:41:06;100218.91;;;7.60;100.00
16525;BME280;8375;33.594;-117.718;2023-01-31T06:43:35;100219.19;;;7.55;100.00
16525;BME280;8375;33.594;-117.718;2023-01-31T06:46:03;100221.13;;;7.52;100.00
16525;BME280;8375;33.594;-117.718;2023-01-31T06:48:34;100223.91;;;7.48;100.00
16525;BME280;8375;33.594;-117.718;2023-01-31T06:51:02;100223.38;;;7.43;100.00
16525;BME280;8375;33.594;-117.718;2023-01-31T06:53:31;100230.28;;;7.43;100.00
16525;BME280;8375;33.594;-117.718;2023-01-31T06:56:00;100228.41;;;7.32;100.00
16525;BME280;8375;33.594;-117.718;2023-01-31T06:58:28;100231.91;;;7.31;100.00
16525;BME280;8375;33.594;-117.718;2023-01-31T07:01:04;100236.59;;;7.24;100.00
16525;BME280;8375;33.594;-117.718;2023-01-31T07:03:34;100230.81;;;7.21;100.00
16525;BME280;8375;33.594;-117.718;2023-01-31T07:06:04;100236.97;;;7.18;100.00
16525;BME280;8375;33.594;-117.718;2023-01-31T07:08:33;100237.38;;;7.12;100.00
16525;BME280;8375;33.594;-117.718;2023-01-31T07:11:02;100242.63;;;7.10;100.00
16525;BME280;8375;33.594;-117.718;2023-01-31T07:13:30;100237.75;;;7.05;100.00
16525;BME280;8375;33.594;-117.718;2023-01-31T07:15:59;100246.34;;;7.06;100.00
16525;BME280;8375;33.594;-117.718;2023-01-31T07:18:28;100257.03;;;7.00;100.00
16525;BME280;8375;33.594;-117.718;2023-01-31T07:20:58;100249.56;;;6.95;100.00
16525;BME280;8375;33.594;-117.718;2023-01-31T07:23:27;100262.03;;;6.88;100.00
16525;BME280;8375;33.594;-117.718;2023-01-31T07:25:55;100268.00;;;6.89;100.00
16525;BME280;8375;33.594;-117.718;2023-01-31T07:28:24;100279.53;;;6.83;100.00
16525;BME280;8375;33.594;-117.718;2023-01-31T07:30:53;100274.25;;;6.85;100.00
16525;BME280;8375;33.594;-117.718;2023-01-31T07:33:21;100270.03;;;6.84;100.00
16525;BME280;8375;33.594;-117.718;2023-01-31T07:35:50;100270.13;;;6.82;100.00
16525;BME280;8375;33.594;-117.718;2023-01-31T07:38:20;100261.47;;;6.83;100.00
16525;BME280;8375;33.594;-117.718;2023-01-31T07:40:49;100276.66;;;6.88;100.00
16525;BME280;8375;33.594;-117.718;2023-01-31T07:43:18;100271.31;;;6.91;100.00
16525;BME280;8375;33.594;-117.718;2023-01-31T07:45:46;100268.66;;;6.93;100.00
16525;BME280;8375;33.594;-117.718;2023-01-31T07:48:15;100271.22;;;6.93;100.00
16525;BME280;8375;33.594;-117.718;2023-01-31T07:50:49;100255.56;;;6.96;100.00
16525;BME280;8375;33.594;-117.718;2023-01-31T07:53:20;100262.38;;;6.97;100.00
16525;BME280;8375;33.594;-117.718;2023-01-31T07:55:49;100257.47;;;6.92;100.00
16525;BME280;8375;33.594;-117.718;2023-01-31T07:58:17;100252.50;;;6.89;100.00
16525;BME280;8375;33.594;-117.718;2023-01-31T08:00:46;100253.53;;;6.86;100.00
16525;BME280;8375;33.594;-117.718;2023-01-31T08:03:31;100250.41;;;6.81;100.00
16525;BME280;8375;33.594;-117.718;2023-01-31T08:06:02;100253.53;;;6.86;100.00
16525;BME280;8375;33.594;-117.718;2023-01-31T08:08:33;100250.13;;;6.86;100.00
16525;BME280;8375;33.594;-117.718;2023-01-31T08:11:02;100244.50;;;6.79;100.00
16525;BME280;8375;33.594;-117.718;2023-01-31T08:13:31;100245.25;;;6.81;100.00
16525;BME280;8375;33.594;-117.718;2023-01-31T08:16:00;100241.28;;;6.75;100.00
16525;BME280;8375;33.594;-117.718;2023-01-31T08:18:29;100239.25;;;6.66;100.00
16525;BME280;8375;33.594;-117.718;2023-01-31T08:20:58;100240.16;;;6.65;100.00
16525;BME280;8375;33.594;-117.718;2023-01-31T08:23:27;100234.75;;;6.70;100.00
16525;BME280;8375;33.594;-117.718;2023-01-31T08:26:01;100229.22;;;6.76;100.00
16525;BME280;8375;33.594;-117.718;2023-01-31T08:28:31;100229.38;;;6.87;100.00
16525;BME280;8375;33.594;-117.718;2023-01-31T08:30:59;100229.72;;;7.10;100.00
16525;BME280;8375;33.594;-117.718;2023-01-31T08:33:28;100233.38;;;7.35;93.13
16525;BME280;8375;33.594;-117.718;2023-01-31T08:35:57;100227.03;;;7.54;86.96
16525;BME280;8375;33.594;-117.718;2023-01-31T08:38:35;100235.88;;;7.77;79.97
16525;BME280;8375;33.594;-117.718;2023-01-31T08:41:05;100240.91;;;7.93;79.06
16525;BME280;8375;33.594;-117.718;2023-01-31T08:43:34;100242.81;;;8.04;74.76
16525;BME280;8375;33.594;-117.718;2023-01-31T08:46:03;100247.78;;;8.07;75.03
16525;BME280;8375;33.594;-117.718;2023-01-31T08:48:32;100247.78;;;8.07;74.16
16525;BME280;8375;33.594;-117.718;2023-01-31T08:51:01;100248.25;;;7.99;78.08
16525;BME280;8375;33.594;-117.718;2023-01-31T08:53:31;100251.03;;;7.96;72.81
16525;BME280;8375;33.594;-117.718;2023-01-31T08:56:00;100255.19;;;7.99;69.79
16525;BME280;8375;33.594;-117.718;2023-01-31T08:58:33;100257.66;;;8.00;67.52
16525;BME280;8375;33.594;-117.718;2023-01-31T09:01:02;100265.53;;;7.99;68.99
16525;BME280;8375;33.594;-117.718;2023-01-31T09:03:30;100255.47;;;7.94;70.40
16525;BME280;8375;33.594;-117.718;2023-01-31T09:05:59;100258.06;;;7.94;67.83
16525;BME280;8375;33.594;-117.718;2023-01-31T09:08:29;100257.44;;;7.90;65.97
16525;BME280;8375;33.594;-117.718;2023-01-31T09:10:58;100254.22;;;7.87;62.85
16525;BME280;8375;33.594;-117.718;2023-01-31T09:13:28;100263.53;;;7.89;63.49
16525;BME280;8375;33.594;-117.718;2023-01-31T09:15:59;100264.63;;;8.00;57.97
16525;BME280;8375;33.594;-117.718;2023-01-31T09:18:28;100264.69;;;7.98;77.29
16525;BME280;8375;33.594;-117.718;2023-01-31T09:21:02;100266.81;;;7.78;81.93
16525;BME280;8375;33.594;-117.718;2023-01-31T09:23:32;100266.59;;;7.54;85.02
16525;BME280;8375;33.594;-117.718;2023-01-31T09:26:01;100259.94;;;7.37;87.38
16525;BME280;8375;33.594;-117.718;2023-01-31T09:28:30;100262.25;;;7.27;88.19
16525;BME280;8375;33.594;-117.718;2023-01-31T09:31:04;100272.13;;;7.21;90.48
16525;BME280;8375;33.594;-117.718;2023-01-31T09:33:34;100276.19;;;7.10;93.80
16525;BME280;8375;33.594;-117.718;2023-01-31T09:36:04;100278.06;;;6.94;95.10
16525;BME280;8375;33.594;-117.718;2023-01-31T09:38:33;100279.34;;;6.86;95.67
16525;BME280;8375;33.594;-117.718;2023-01-31T09:41:04;100273.06;;;6.76;96.65
16525;BME280;8375;33.594;-117.718;2023-01-31T09:43:35;100270.94;;;6.68;97.65
16525;BME280;8375;33.594;-117.718;2023-01-31T09:46:11;100276.47;;;6.62;97.48
16525;BME280;8375;33.594;-117.718;2023-01-31T09:48:44;100275.09;;;6.56;97.76
16525;BME280;8375;33.594;-117.718;2023-01-31T09:51:16;100270.09;;;6.53;98.02
16525;BME280;8375;33.594;-117.718;2023-01-31T09:53:46;100279.75;;;6.50;98.19
16525;BME280;8375;33.594;-117.718;2023-01-31T09:56:24;100277.38;;;6.46;96.84
16525;BME280;8375;33.594;-117.718;2023-01-31T09:59:01;100279.31;;;6.43;95.02
16525;BME280;8375;33.594;-117.718;2023-01-31T10:01:37;100282.06;;;6.40;95.21
16525;BME280;8375;33.594;-117.718;2023-01-31T10:07:06;100276.25;;;6.36;93.29
16525;BME280;8375;33.594;-117.718;2023-01-31T10:09:42;100278.19;;;6.33;93.42
16525;BME280;8375;33.594;-117.718;2023-01-31T10:12:16;100281.69;;;6.31;90.70
16525;BME280;8375;33.594;-117.718;2023-01-31T10:14:48;100280.19;;;6.27;90.17
16525;BME280;8375;33.594;-117.718;2023-01-31T10:17:24;100282.09;;;6.24;90.52
16525;BME280;8375;33.594;-117.718;2023-01-31T10:19:55;100278.13;;;6.18;90.55
16525;BME280;8375;33.594;-117.718;2023-01-31T10:22:30;100281.72;;;6.15;87.85
16525;BME280;8375;33.594;-117.718;2023-01-31T10:25:10;100286.06;;;6.15;88.68
16525;BME280;8375;33.594;-117.718;2023-01-31T10:27:47;100291.38;;;6.12;94.06
16525;BME280;8375;33.594;-117.718;2023-01-31T10:30:18;100289.88;;;6.08;96.70
16525;BME280;8375;33.594;-117.718;2023-01-31T10:32:54;100288.63;;;5.99;97.82
16525;BME280;8375;33.594;-117.718;2023-01-31T10:35:29;100284.25;;;5.85;98.93
16525;BME280;8375;33.594;-117.718;2023-01-31T10:38:06;100285.56;;;5.76;99.21
16525;BME280;8375;33.594;-117.718;2023-01-31T10:40:43;100288.75;;;5.65;100.00
16525;BME280;8375;33.594;-117.718;2023-01-31T10:43:17;100288.25;;;5.58;100.00
16525;BME280;8375;33.594;-117.718;2023-01-31T10:45:47;100289.16;;;5.57;100.00
16525;BME280;8375;33.594;-117.718;2023-01-31T10:48:19;100284.19;;;5.54;100.00
16525;BME280;8375;33.594;-117.718;2023-01-31T10:50:59;100287.94;;;5.49;100.00
16525;BME280;8375;33.594;-117.718;2023-01-31T10:53:52;100285.94;;;5.38;100.00
16525;BME280;8375;33.594;-117.718;2023-01-31T10:56:29;100285.28;;;5.34;100.00
16525;BME280;8375;33.594;-117.718;2023-01-31T10:59:01;100293.16;;;5.31;100.00
16525;BME280;8375;33.594;-117.718;2023-01-31T11:01:34;100287.66;;;5.21;100.00
16525;BME280;8375;33.594;-117.718;2023-01-31T11:04:21;100289.72;;;5.14;100.00
16525;BME280;8375;33.594;-117.718;2023-01-31T11:06:50;100286.16;;;5.17;100.00
16525;BME280;8375;33.594;-117.718;2023-01-31T11:09:21;100291.38;;;5.16;100.00
16525;BME280;8375;33.594;-117.718;2023-01-31T11:11:55;100282.84;;;5.15;100.00
16525;BME280;8375;33.594;-117.718;2023-01-31T11:14:24;100290.28;;;5.04;100.00
16525;BME280;8375;33.594;-117.718;2023-01-31T11:16:58;100284.53;;;4.98;100.00
16525;BME280;8375;33.594;-117.718;2023-01-31T11:19:34;100287.78;;;5.02;100.00
16525;BME280;8375;33.594;-117.718;2023-01-31T11:22:05;100278.66;;;4.96;100.00
16525;BME280;8375;33.594;-117.718;2023-01-31T11:24:36;100282.94;;;4.96;100.00
16525;BME280;8375;33.594;-117.718;2023-01-31T11:27:08;100289.00;;;4.95;100.00
16525;BME280;8375;33.594;-117.718;2023-01-31T11:29:38;100287.50;;;4.91;100.00
16525;BME280;8375;33.594;-117.718;2023-01-31T11:32:16;100295.03;;;4.78;100.00
16525;BME280;8375;33.594;-117.718;2023-01-31T11:34:58;100300.41;;;4.73;100.00
16525;BME280;8375;33.594;-117.718;2023-01-31T11:37:29;100305.84;;;4.67;100.00
16525;BME280;8375;33.594;-117.718;2023-01-31T11:39:59;100301.78;;;4.63;100.00
16525;BME280;8375;33.594;-117.718;2023-01-31T11:42:28;100307.22;;;4.57;100.00
16525;BME280;8375;33.594;-117.718;2023-01-31T11:44:59;100312.31;;;4.58;100.00
16525;BME280;8375;33.594;-117.718;2023-01-31T11:47:38;100315.09;;;4.53;100.00
16525;BME280;8375;33.594;-117.718;2023-01-31T11:50:18;100312.66;;;4.50;100.00
16525;BME280;8375;33.594;-117.718;2023-01-31T11:52:54;100316.00;;;4.52;100.00
16525;BME280;8375;33.594;-117.718;2023-01-31T11:55:24;100316.91;;;4.51;100.00
16525;BME280;8375;33.594;-117.718;2023-01-31T11:57:58;100326.38;;;4.51;100.00
16525;BME280;8375;33.594;-117.718;2023-01-31T12:00:30;100327.28;;;4.50;100.00
16525;BME280;8375;33.594;-117.718;2023-01-31T12:03:02;100332.41;;;4.50;100.00
16525;BME280;8375;33.594;-117.718;2023-01-31T12:05:42;100337.16;;;4.40;100.00
16525;BME280;8375;33.594;-117.718;2023-01-31T12:08:32;100344.97;;;4.38;100.00
16525;BME280;8375;33.594;-117.718;2023-01-31T12:11:04;100339.75;;;4.40;100.00
16525;BME280;8375;33.594;-117.718;2023-01-31T12:13:46;100336.34;;;4.39;100.00
16525;BME280;8375;33.594;-117.718;2023-01-31T12:16:19;100341.41;;;4.41;100.00
16525;BME280;8375;33.594;-117.718;2023-01-31T12:19:00;100341.34;;;4.43;100.00
16525;BME280;8375;33.594;-117.718;2023-01-31T12:21:48;100343.75;;;4.46;100.00
16525;BME280;8375;33.594;-117.718;2023-01-31T12:24:29;100352.38;;;4.45;100.00
16525;BME280;8375;33.594;-117.718;2023-01-31T12:27:08;100351.91;;;4.36;100.00
16525;BME280;8375;33.594;-117.718;2023-01-31T12:29:48;100355.31;;;4.37;100.00
16525;BME280;8375;33.594;-117.718;2023-01-31T12:32:32;100360.84;;;4.29;100.00
16525;BME280;8375;33.594;-117.718;2023-01-31T12:38:12;100366.69;;;4.14;100.00
16525;BME280;8375;33.594;-117.718;2023-01-31T12:40:52;100371.00;;;4.13;100.00
16525;BME280;8375;33.594;-117.718;2023-01-31T12:43:43;100364.44;;;4.07;100.00
16525;BME280;8375;33.594;-117.718;2023-01-31T12:46:19;100374.69;;;4.07;100.00
16525;BME280;8375;33.594;-117.718;2023-01-31T12:49:08;100377.28;;;4.07;100.00
16525;BME280;8375;33.594;-117.718;2023-01-31T12:51:44;100386.16;;;4.00;100.00
16525;BME280;8375;33.594;-117.718;2023-01-31T12:54:29;100379.69;;;3.91;100.00
16525;BME280;8375;33.594;-117.718;2023-01-31T12:57:14;100378.94;;;3.89;100.00
16525;BME280;8375;33.594;-117.718;2023-01-31T12:59:53;100382.13;;;3.94;100.00
16525;BME280;8375;33.594;-117.718;2023-01-31T13:02:40;100383.19;;;3.90;100.00
16525;BME280;8375;33.594;-117.718;2023-01-31T13:05:23;100391.78;;;3.89;100.00
16525;BME280;8375;33.594;-117.718;2023-01-31T13:07:56;100394.50;;;3.86;100.00
16525;BME280;8375;33.594;-117.718;2023-01-31T13:10:35;100393.88;;;3.81;100.00
16525;BME280;8375;33.594;-117.718;2023-01-31T13:13:09;100393.06;;;3.80;100.00